Queimados, Brazil
Current Conditions -  °F | °C
As of 7:00 PM on Saturday 20 Dec 2014 (Local Time) from SBAF Reporting Station
Scattered Clouds Scattered Clouds  
Wind Chill: 90°   Ceiling: Unl
Heat Index: 93°   Visibility: 6mi
Dew Point: 68°   Wind: 3mph
Humidity: 49%   Direction: 100°E
Pressure: 29.74"   Gusts: NA
Location:  22.72°S, 43.56°W
Report Text: SBAF 202100Z 10003KT 9999 FEW030 SCT100 32/20 Q1007
Loading
Personal Weather Stations






























Interactive Weather Map New forecast layout! Learn more

10-Day Weather Forecast

Advertisements
Track Severe Weather on mobile